Vladivostok International Airport
UHWW : now visible

Airfield :











YOU CAN JOIN US ON...

 
LOGIN :

Register | Disclaimer

   EN    FR    IT 

 









Legend :    VFR   Marginal VFR   IFR   Intensive IFR   Very Intensive IFR
Visi :
Ceiling :
>= 8 km
>= 3000ft
5 to 8 km
1000 to 3000 ft
1500m to 5 km
500 to 1000 ft
800 to 1500m
200 to 500 ft
< 800m
< 200 ft
Symbols :   Thunderstorms  Fog  Heavy snow  Heavy precipitations  Wind > 20 kt






- Airport Elevation : 46 ft
- IATA code : VVO


UHWW - Vladivostok International

CURRENT METAR :
  • 260730Z 24005MPS 9999 NSC M06/M17 Q1031 R25L/0///70 NOSIG RMK QFE772

EXPIRED METARs :
  • 260700Z 29003MPS 250V360 9999 NSC M04/M18 Q1031 R25L/0///70 NOSIG RMK QFE772
  • 260630Z 35003MPS 9999 NSC M02/M20 Q1031 R25L/0///70 NOSIG RMK QFE772
  • 260600Z 35004MPS 9999 NSC M02/M20 Q1031 R25L/0///70 NOSIG RMK QFE772
  • 260530Z 32004MPS 9999 NSC M02/M20 Q1031 R25L/0///70 NOSIG RMK QFE772
  • 260500Z 34004MPS 9999 NSC M03/M22 Q1031 R25L/0///70 NOSIG RMK QFE772

TAF TAF UHWW
Valid from the 26 at 06:00 until the 27 at 06:00 UTC


260500Z 2606/2706 34003MPS 9999 NSC
FM261800 VRB01MPS 5000 FU SCT040
BECMG 2702/2703 35003MPS 9999 NSW



MET'MAP, your aeronautical weather chart ! - Copyright ORBIFLY December 2007 - Disclaimer

ORBIFLY MET'MAP TEAM :

Programming & Development : Alexandra Zaïnal
Concept & original design : Baudouin d'Aumeries
Assistance for programming : Marc-Olivier Méhu
Technical & hardware support : Manuel Goepfert

Contact : metmap@orbifly.com




SOURCES & CREDITS :

   NOAA       Earth
Advisory